Time;durP1;ratioP1;P1;durP2;ratioP2;P2;SDS_P1;SDS_P2;PMS_P1;PMS_P2;Temp;Humidity;BMP_temperature;BMP_pressure;BME280_temperature;BME280_humidity;BME280_pressure;Samples;Min_cycle;Max_cycle;Signal;HPM_P1;HPM_P2
2021/06/04 00:00:23;;;;;;;13.50;12.30;;;17.60;99.90;;;;;;6189243;23;20404;-73
2021/06/04 00:02:51;;;;;;;13.97;12.77;;;17.60;99.90;;;;;;6226070;23;20470;-73
2021/06/04 00:05:28;;;;;;;15.03;13.73;;;17.60;99.90;;;;;;6225482;23;20768;-73
2021/06/04 00:07:55;;;;;;;14.07;12.97;;;17.60;99.90;;;;;;6188893;23;20478;-73
2021/06/04 00:10:27;;;;;;;13.27;12.17;;;17.60;99.90;;;;;;6225338;23;20431;-73
2021/06/04 00:12:54;;;;;;;15.27;13.90;;;17.60;99.90;;;;;;6188917;23;20408;-73
2021/06/04 00:15:27;;;;;;;14.60;13.30;;;17.60;99.90;;;;;;6225163;23;20420;-73
2021/06/04 00:17:55;;;;;;;13.77;12.63;;;17.60;99.90;;;;;;6225302;23;20897;-73
2021/06/04 00:20:26;;;;;;;13.43;12.23;;;17.60;99.90;;;;;;6188733;23;20523;-73
2021/06/04 00:22:54;;;;;;;13.77;12.67;;;17.50;99.90;;;;;;6188708;23;20489;-73
2021/06/04 00:25:23;;;;;;;13.37;12.17;;;17.50;99.90;;;;;;6225595;23;20419;-73
2021/06/04 00:27:50;;;;;;;13.90;12.70;;;17.60;99.90;;;;;;6188719;23;20415;-73
2021/06/04 00:30:20;;;;;;;15.07;13.70;;;17.60;99.90;;;;;;6188443;23;20483;-73
2021/06/04 00:32:49;;;;;;;14.40;13.23;;;17.60;99.90;;;;;;6225572;23;20449;-73
2021/06/04 00:35:17;;;;;;;16.20;14.63;;;17.60;99.90;;;;;;6225192;23;20441;-73
2021/06/04 00:37:44;;;;;;;14.73;13.63;;;17.60;99.90;;;;;;6225371;23;20395;-72
2021/06/04 00:40:17;;;;;;;13.67;12.57;;;17.60;99.90;;;;;;6188765;23;20473;-73
2021/06/04 00:42:45;;;;;;;15.70;14.40;;;17.50;99.90;;;;;;6215428;23;20866;-73
2021/06/04 00:45:18;;;;;;;16.10;14.80;;;17.60;99.90;;;;;;6188996;23;20435;-73
2021/06/04 00:47:48;;;;;;;15.00;13.70;;;17.60;99.90;;;;;;6188812;23;20407;-73
2021/06/04 00:50:21;;;;;;;15.30;14.00;;;17.60;99.90;;;;;;6188790;23;20902;-73
2021/06/04 00:52:49;;;;;;;15.47;14.17;;;17.50;99.90;;;;;;6225926;23;20383;-73
2021/06/04 00:55:20;;;;;;;16.30;15.00;;;17.60;99.90;;;;;;6225497;23;20477;-73
2021/06/04 00:57:48;;;;;;;15.80;14.30;;;17.50;99.90;;;;;;6188922;23;20421;-73
2021/06/04 01:00:23;;;;;;;14.73;13.50;;;17.60;99.90;;;;;;6188912;23;20446;-73
2021/06/04 01:02:56;;;;;;;15.13;13.83;;;17.60;99.90;;;;;;6188749;23;20415;-74
2021/06/04 01:05:28;;;;;;;14.07;12.83;;;17.60;99.90;;;;;;6188594;23;20473;-73
2021/06/04 01:08:17;;;;;;;15.30;14.00;;;17.60;99.90;;;;;;6188659;23;20814;-74
2021/06/04 01:11:01;;;;;;;15.13;13.93;;;17.60;99.90;;;;;;6188609;23;20435;-73
2021/06/04 01:13:33;;;;;;;16.40;15.00;;;17.60;99.90;;;;;;6214133;23;20734;-73
2021/06/04 01:16:10;;;;;;;16.10;14.70;;;17.60;99.90;;;;;;6188770;23;20450;-73
2021/06/04 01:19:03;;;;;;;16.30;14.90;;;17.60;99.90;;;;;;6225385;23;20684;-74
2021/06/04 01:21:39;;;;;;;16.52;15.13;;;17.60;99.90;;;;;;6189345;23;20488;-73
2021/06/04 01:24:16;;;;;;;15.37;13.97;;;17.60;99.90;;;;;;6190614;23;20654;-73
2021/06/04 01:26:50;;;;;;;16.03;14.37;;;17.60;99.90;;;;;;6190507;23;20414;-74
2021/06/04 01:29:24;;;;;;;15.20;13.80;;;17.60;99.90;;;;;;6189900;23;20789;-73
2021/06/04 01:31:55;;;;;;;16.90;15.30;;;17.60;99.90;;;;;;6226719;23;20406;-73
2021/06/04 01:34:28;;;;;;;16.57;15.20;;;17.60;99.90;;;;;;6218980;23;20195;-74
2021/06/04 01:37:06;;;;;;;15.13;13.80;;;17.60;99.90;;;;;;6190681;23;20422;-73
2021/06/04 01:39:49;;;;;;;15.30;13.90;;;17.60;99.90;;;;;;6190486;23;20406;-73
2021/06/04 01:42:22;;;;;;;15.40;14.00;;;17.50;99.90;;;;;;6227633;23;20467;-74
2021/06/04 01:44:53;;;;;;;16.20;14.80;;;17.50;99.90;;;;;;6226924;23;20418;-73
2021/06/04 01:47:28;;;;;;;14.77;13.67;;;17.50;99.90;;;;;;6190316;23;20407;-73
2021/06/04 01:50:00;;;;;;;16.30;14.70;;;17.50;99.90;;;;;;6190636;23;20956;-73
2021/06/04 01:52:36;;;;;;;15.30;14.00;;;17.50;99.90;;;;;;6226822;23;20419;-73
2021/06/04 01:55:12;;;;;;;16.43;14.60;;;17.40;99.90;;;;;;6215091;23;20470;-73
2021/06/04 01:57:46;;;;;;;15.97;14.53;;;17.40;99.90;;;;;;6190612;23;20411;-73
2021/06/04 02:00:17;;;;;;;15.00;13.80;;;17.40;99.90;;;;;;6227685;23;20402;-73
2021/06/04 02:02:46;;;;;;;15.60;14.20;;;17.30;99.90;;;;;;6227258;23;20462;-74
2021/06/04 02:05:29;;;;;;;14.97;13.57;;;17.30;99.90;;;;;;6190649;23;20482;-73
2021/06/04 02:07:58;;;;;;;14.57;13.37;;;17.30;99.90;;;;;;6190099;23;20422;-73
2021/06/04 02:10:31;;;;;;;14.70;13.50;;;17.30;99.90;;;;;;6190129;23;20411;-73
2021/06/04 02:13:04;;;;;;;14.60;13.40;;;17.20;99.90;;;;;;6190070;23;20522;-73
2021/06/04 02:15:40;;;;;;;16.67;15.03;;;17.20;99.90;;;;;;6226616;23;20758;-73
2021/06/04 02:18:22;;;;;;;16.13;14.77;;;17.20;99.90;;;;;;6190144;23;20415;-73
2021/06/04 02:21:06;;;;;;;16.37;14.97;;;17.20;99.90;;;;;;6190663;23;20414;-74
2021/06/04 02:23:42;;;;;;;15.77;14.50;;;17.10;99.90;;;;;;6226905;23;20452;-73
2021/06/04 02:26:17;;;;;;;15.27;13.97;;;17.10;99.90;;;;;;6215307;23;20431;-74
2021/06/04 02:28:54;;;;;;;17.43;15.80;;;17.10;99.90;;;;;;6215057;23;20410;-74
2021/06/04 02:31:28;;;;;;;16.97;15.67;;;17.00;99.90;;;;;;6189527;23;21004;-73
2021/06/04 02:34:04;;;;;;;18.00;16.50;;;17.00;99.90;;;;;;6189579;23;20823;-74
2021/06/04 02:36:40;;;;;;;17.83;16.13;;;17.00;99.90;;;;;;6226521;23;20184;-74
2021/06/04 02:39:15;;;;;;;17.27;15.77;;;17.00;99.90;;;;;;6189943;23;20807;-73
2021/06/04 02:41:48;;;;;;;16.60;15.20;;;16.90;99.90;;;;;;6214786;23;20403;-74
2021/06/04 02:44:21;;;;;;;15.80;14.40;;;16.90;99.90;;;;;;6189840;23;20498;-74
2021/06/04 02:46:53;;;;;;;15.40;14.17;;;16.90;99.90;;;;;;6190161;23;20411;-73
2021/06/04 02:49:23;;;;;;;15.60;14.40;;;16.90;99.90;;;;;;6189707;23;20411;-73
2021/06/04 02:51:56;;;;;;;16.57;15.10;;;16.80;99.90;;;;;;6189809;23;20440;-73
2021/06/04 02:54:29;;;;;;;17.97;16.20;;;16.80;99.90;;;;;;6189548;23;20411;-73
2021/06/04 02:57:00;;;;;;;15.97;14.67;;;16.80;99.90;;;;;;6226752;23;20358;-73
2021/06/04 02:59:33;;;;;;;17.70;16.00;;;16.80;99.90;;;;;;6226580;23;20433;-73
2021/06/04 03:02:06;;;;;;;16.03;14.73;;;16.70;99.90;;;;;;6189921;23;20433;-73
2021/06/04 03:04:39;;;;;;;15.87;14.50;;;16.70;99.90;;;;;;6214291;23;20417;-73
2021/06/04 03:07:10;;;;;;;16.30;14.70;;;16.70;99.90;;;;;;6189530;23;20447;-73
2021/06/04 03:09:40;;;;;;;16.57;15.13;;;16.70;99.90;;;;;;6226170;23;20375;-73
2021/06/04 03:12:14;;;;;;;16.90;15.40;;;16.70;99.90;;;;;;6189332;23;20814;-73
2021/06/04 03:14:47;;;;;;;16.10;14.70;;;16.60;99.90;;;;;;6189434;23;20518;-73
2021/06/04 03:17:18;;;;;;;17.10;15.70;;;16.60;99.90;;;;;;6189434;23;20417;-73
2021/06/04 03:19:45;;;;;;;16.50;15.13;;;16.60;99.90;;;;;;6189238;23;20971;-73
2021/06/04 03:22:27;;;;;;;16.40;14.90;;;16.60;99.90;;;;;;6215868;23;20947;-73
2021/06/04 03:25:04;;;;;;;16.73;15.30;;;16.50;99.90;;;;;;6189283;23;20893;-73
2021/06/04 03:27:33;;;;;;;17.58;16.17;;;16.50;99.90;;;;;;6212970;23;20470;-73
2021/06/04 03:30:04;;;;;;;16.90;15.40;;;16.60;99.90;;;;;;6189377;23;20484;-73
2021/06/04 03:32:40;;;;;;;16.30;14.90;;;16.60;99.90;;;;;;6189661;23;20913;-73
2021/06/04 03:35:10;;;;;;;16.30;14.90;;;16.60;99.90;;;;;;6189238;23;20424;-73
2021/06/04 03:37:38;;;;;;;17.17;15.68;;;16.50;99.90;;;;;;6213476;23;20412;-73
2021/06/04 03:40:08;;;;;;;18.10;16.50;;;16.60;99.90;;;;;;6226126;23;20179;-73
2021/06/04 03:42:36;;;;;;;16.90;15.50;;;16.50;99.90;;;;;;6214078;23;20909;-73
2021/06/04 03:45:18;;;;;;;16.80;15.40;;;16.50;99.90;;;;;;6188902;23;20441;-73
2021/06/04 03:47:46;;;;;;;16.43;15.03;;;16.50;99.90;;;;;;6189159;23;20422;-73
2021/06/04 03:50:15;;;;;;;18.47;16.87;;;16.50;99.90;;;;;;6189764;23;20725;-73
2021/06/04 03:52:43;;;;;;;18.50;16.80;;;16.50;99.90;;;;;;6189154;23;20769;-73
2021/06/04 03:55:13;;;;;;;20.43;18.67;;;16.50;99.90;;;;;;6225640;23;20451;-73
2021/06/04 03:57:41;;;;;;;19.50;17.63;;;16.50;99.90;;;;;;6188948;23;20419;-73
2021/06/04 04:00:16;;;;;;;18.43;16.93;;;16.60;99.90;;;;;;6189090;23;20411;-73
2021/06/04 04:02:44;;;;;;;20.17;18.37;;;16.60;99.90;;;;;;6189904;23;20399;-73
2021/06/04 04:05:13;;;;;;;22.27;20.37;;;16.60;99.90;;;;;;6225680;23;20496;-73
2021/06/04 04:07:41;;;;;;;20.30;18.50;;;16.60;99.90;;;;;;6188793;23;20422;-73
2021/06/04 04:10:11;;;;;;;20.73;18.83;;;16.70;99.90;;;;;;6189072;23;20411;-73
2021/06/04 04:12:39;;;;;;;22.63;20.43;;;16.70;99.90;;;;;;6225812;23;20419;-73
2021/06/04 04:15:17;;;;;;;22.10;20.20;;;16.70;99.90;;;;;;6225445;23;20447;-73
2021/06/04 04:17:45;;;;;;;19.87;18.10;;;16.70;99.90;;;;;;6225690;23;20379;-73
2021/06/04 04:20:15;;;;;;;19.67;18.07;;;16.70;99.90;;;;;;6188903;23;20418;-73
2021/06/04 04:22:44;;;;;;;20.07;18.30;;;16.80;99.90;;;;;;6225543;23;20399;-73
2021/06/04 04:25:14;;;;;;;20.37;18.47;;;16.80;99.90;;;;;;6225689;23;20401;-73
2021/06/04 04:27:42;;;;;;;21.43;19.57;;;16.80;99.90;;;;;;6188721;23;20447;-73
2021/06/04 04:30:14;;;;;;;20.33;18.60;;;16.80;99.90;;;;;;6225599;23;20391;-73
2021/06/04 04:32:41;;;;;;;21.70;19.60;;;16.80;99.90;;;;;;6224532;23;20469;-73
2021/06/04 04:35:10;;;;;;;20.90;19.20;;;16.90;99.90;;;;;;6225337;23;20434;-73
2021/06/04 04:37:38;;;;;;;21.53;19.53;;;16.90;99.90;;;;;;6214081;23;20474;-74
2021/06/04 04:40:08;;;;;;;20.93;19.20;;;16.90;99.90;;;;;;6215748;23;20426;-73
2021/06/04 04:42:36;;;;;;;22.02;20.13;;;16.90;99.90;;;;;;6212908;23;20441;-73
2021/06/04 04:45:06;;;;;;;20.70;18.90;;;17.00;99.90;;;;;;6225590;23;20188;-73
2021/06/04 04:47:35;;;;;;;20.13;18.43;;;17.00;99.90;;;;;;6225638;23;20376;-73
2021/06/04 04:50:04;;;;;;;20.17;18.47;;;17.00;99.90;;;;;;6225540;23;20457;-73
2021/06/04 04:52:32;;;;;;;20.40;18.70;;;17.00;99.90;;;;;;6225310;23;20446;-73
2021/06/04 04:55:00;;;;;;;21.40;19.40;;;17.10;99.90;;;;;;6189346;23;20920;-73
2021/06/04 04:57:29;;;;;;;20.90;19.10;;;17.10;99.90;;;;;;6227501;23;20458;-73
2021/06/04 04:59:57;;;;;;;21.23;19.43;;;17.10;99.90;;;;;;6227725;23;20402;-73
2021/06/04 05:02:25;;;;;;;22.17;20.17;;;17.10;99.90;;;;;;6217755;23;20414;-73
2021/06/04 05:04:54;;;;;;;21.43;19.63;;;17.20;99.90;;;;;;6227431;23;20787;-73
2021/06/04 05:07:22;;;;;;;20.50;18.80;;;17.20;99.90;;;;;;6190737;23;20791;-74
2021/06/04 05:09:50;;;;;;;21.23;19.43;;;17.20;99.90;;;;;;6217184;23;20441;-73
2021/06/04 05:12:18;;;;;;;23.00;21.00;;;17.30;99.90;;;;;;6225277;23;20431;-73
2021/06/04 05:14:45;;;;;;;21.80;20.10;;;17.30;99.90;;;;;;6226535;23;20503;-73
2021/06/04 05:17:14;;;;;;;22.33;20.27;;;17.40;99.90;;;;;;6217711;23;20495;-73
2021/06/04 05:19:43;;;;;;;22.53;20.63;;;17.40;99.90;;;;;;6190615;23;20908;-73
2021/06/04 05:22:13;;;;;;;21.63;19.70;;;17.50;99.90;;;;;;6190646;23;20465;-74
2021/06/04 05:24:41;;;;;;;21.60;19.70;;;17.60;99.90;;;;;;6190616;23;20475;-73
2021/06/04 05:27:09;;;;;;;21.93;20.00;;;17.60;99.90;;;;;;6228070;23;20438;-74
2021/06/04 05:29:37;;;;;;;22.97;20.73;;;17.70;99.90;;;;;;6190663;23;20439;-74
2021/06/04 05:32:06;;;;;;;21.70;19.90;;;17.80;99.90;;;;;;6227151;23;20433;-74
2021/06/04 05:34:34;;;;;;;21.80;20.07;;;17.90;99.90;;;;;;6190578;23;20505;-74
2021/06/04 05:37:02;;;;;;;21.53;19.73;;;18.00;99.90;;;;;;6190594;23;20746;-74
2021/06/04 05:39:31;;;;;;;21.83;20.03;;;18.10;99.90;;;;;;6190523;23;20909;-74
2021/06/04 05:42:03;;;;;;;20.80;18.97;;;18.30;99.90;;;;;;6227131;23;20399;-74
2021/06/04 05:44:32;;;;;;;21.07;19.27;;;18.40;99.90;;;;;;6227504;23;20416;-74
2021/06/04 05:47:03;;;;;;;23.10;21.20;;;18.70;99.90;;;;;;6189605;23;20500;-74
2021/06/04 05:49:31;;;;;;;20.63;18.73;;;18.90;99.90;;;;;;6227232;23;20169;-72
2021/06/04 05:52:00;;;;;;;19.70;18.10;;;19.10;99.90;;;;;;6226963;23;20404;-71
2021/06/04 05:54:27;;;;;;;20.20;18.50;;;19.20;99.90;;;;;;6226963;23;20486;-71
2021/06/04 05:56:56;;;;;;;19.30;17.60;;;19.40;99.90;;;;;;6190314;23;20494;-71
2021/06/04 05:59:24;;;;;;;18.97;17.47;;;19.60;99.90;;;;;;6227366;23;20953;-72
2021/06/04 06:01:52;;;;;;;19.60;17.97;;;19.70;99.90;;;;;;6226956;23;20791;-72
2021/06/04 06:04:20;;;;;;;22.73;20.60;;;19.90;99.90;;;;;;6190343;23;20495;-72
2021/06/04 06:06:48;;;;;;;20.03;18.33;;;20.10;99.90;;;;;;6226381;23;20400;-72
2021/06/04 06:09:16;;;;;;;18.47;16.97;;;20.30;99.90;;;;;;6227332;23;20766;-72
2021/06/04 06:11:44;;;;;;;18.93;17.43;;;20.50;99.90;;;;;;6227235;23;20408;-72
2021/06/04 06:14:15;;;;;;;19.17;17.70;;;20.70;99.90;;;;;;6226839;23;20427;-72
2021/06/04 06:16:44;;;;;;;18.10;16.60;;;20.90;99.90;;;;;;6190117;23;20524;-72
2021/06/04 06:19:15;;;;;;;18.83;17.17;;;21.00;99.90;;;;;;6226863;23;20408;-72
2021/06/04 06:21:45;;;;;;;18.53;17.03;;;21.20;99.90;;;;;;6227214;23;20469;-72
2021/06/04 06:24:13;;;;;;;18.63;17.03;;;21.20;99.90;;;;;;6226800;23;20470;-72
2021/06/04 06:26:41;;;;;;;18.20;16.70;;;21.40;99.90;;;;;;6191089;23;20951;-72
2021/06/04 06:29:11;;;;;;;17.50;16.00;;;21.40;99.90;;;;;;6226587;23;20440;-72
2021/06/04 06:31:48;;;;;;;18.07;16.53;;;21.60;99.90;;;;;;6226728;23;20379;-71
2021/06/04 06:34:16;;;;;;;19.47;17.87;;;21.70;99.90;;;;;;6226717;23;20465;-72
2021/06/04 06:36:46;;;;;;;18.15;16.75;;;21.70;99.90;;;;;;6226765;23;20314;-72
2021/06/04 06:39:17;;;;;;;18.43;16.90;;;21.70;99.90;;;;;;6226944;23;20198;-72
2021/06/04 06:41:47;;;;;;;19.10;17.23;;;21.70;99.90;;;;;;6189822;23;20430;-72
2021/06/04 06:44:16;;;;;;;17.67;16.07;;;21.80;99.90;;;;;;6226938;23;20454;-71
2021/06/04 06:46:46;;;;;;;18.90;17.30;;;21.80;99.90;;;;;;6190050;23;20834;-71
2021/06/04 06:49:15;;;;;;;18.95;17.48;;;21.90;99.90;;;;;;6188764;23;20414;-73
2021/06/04 06:51:43;;;;;;;19.43;17.93;;;22.10;99.90;;;;;;6226171;23;20173;-70
2021/06/04 06:54:15;;;;;;;18.90;17.40;;;22.10;99.90;;;;;;6226669;23;20527;-70
2021/06/04 06:56:43;;;;;;;20.17;18.53;;;22.20;99.90;;;;;;6226334;23;20417;-70
2021/06/04 06:59:12;;;;;;;20.47;18.80;;;22.20;99.90;;;;;;6189874;23;20484;-70
2021/06/04 07:01:42;;;;;;;18.83;17.20;;;22.20;99.90;;;;;;6226506;23;20398;-70
2021/06/04 07:04:12;;;;;;;21.80;20.00;;;22.20;99.90;;;;;;6189439;23;20872;-70
2021/06/04 07:06:41;;;;;;;19.90;18.20;;;22.30;99.90;;;;;;6189464;23;20426;-70
2021/06/04 07:09:11;;;;;;;20.13;18.40;;;22.20;99.90;;;;;;6226366;23;20409;-70
2021/06/04 07:11:43;;;;;;;21.57;19.80;;;22.20;99.90;;;;;;6216328;23;20437;-69
2021/06/04 07:14:11;;;;;;;21.93;20.23;;;22.10;99.90;;;;;;6226096;23;20507;-68
2021/06/04 07:16:40;;;;;;;18.93;17.43;;;22.10;99.90;;;;;;6225895;23;20789;-69
2021/06/04 07:19:07;;;;;;;21.20;19.30;;;22.10;99.90;;;;;;6225690;23;20410;-70
2021/06/04 07:21:38;;;;;;;20.77;18.70;;;22.10;99.90;;;;;;6189301;23;20424;-72
2021/06/04 07:24:13;;;;;;;22.67;20.57;;;22.10;99.90;;;;;;6226257;23;20375;-73
2021/06/04 07:26:42;;;;;;;21.40;19.77;;;22.10;99.90;;;;;;6225902;23;20413;-72
2021/06/04 07:29:10;;;;;;;21.53;19.73;;;22.10;99.90;;;;;;6189436;23;20409;-74
2021/06/04 07:31:39;;;;;;;21.77;19.87;;;22.20;99.90;;;;;;6189402;23;20426;-72
2021/06/04 07:34:06;;;;;;;22.30;20.50;;;22.20;99.90;;;;;;6189247;23;20453;-71
2021/06/04 07:36:38;;;;;;;22.52;20.63;;;22.20;99.90;;;;;;6225597;23;20398;-71
2021/06/04 07:39:09;;;;;;;24.83;22.80;;;22.20;99.90;;;;;;6226529;23;20158;-71
2021/06/04 07:41:37;;;;;;;22.07;20.23;;;22.20;99.90;;;;;;6226602;23;20387;-71
2021/06/04 07:44:05;;;;;;;24.30;22.00;;;22.30;99.90;;;;;;6216222;23;20451;-71
2021/06/04 07:46:33;;;;;;;33.00;30.10;;;22.20;99.90;;;;;;6215762;23;20432;-71
2021/06/04 07:49:01;;;;;;;24.23;22.33;;;22.30;99.90;;;;;;6225036;23;20481;-75
2021/06/04 07:51:32;;;;;;;22.40;20.50;;;22.30;99.90;;;;;;6189553;23;20202;-76
2021/06/04 07:54:01;;;;;;;24.30;22.10;;;22.40;99.90;;;;;;6190252;23;20428;-75
2021/06/04 07:56:29;;;;;;;24.77;22.47;;;22.30;99.90;;;;;;6225917;23;20741;-74
2021/06/04 07:58:57;;;;;;;28.33;25.83;;;22.30;99.90;;;;;;6188993;23;20943;-71
2021/06/04 08:01:24;;;;;;;28.30;25.70;;;22.30;99.90;;;;;;6225649;23;20466;-70
2021/06/04 08:03:52;;;;;;;29.30;26.50;;;22.30;99.90;;;;;;6188620;23;20429;-70
2021/06/04 08:06:21;;;;;;;30.60;25.50;;;22.30;99.90;;;;;;6188921;23;20901;-70
2021/06/04 08:08:53;;;;;;;28.90;26.13;;;22.30;99.90;;;;;;6225987;23;20698;-69
2021/06/04 08:11:25;;;;;;;28.83;26.30;;;22.30;99.90;;;;;;6225696;23;20795;-72
2021/06/04 08:13:56;;;;;;;27.90;25.50;;;22.30;99.90;;;;;;6188962;23;20425;-69
2021/06/04 08:16:24;;;;;;;27.97;25.47;;;22.30;99.90;;;;;;6225636;23;20448;-69
2021/06/04 08:18:53;;;;;;;27.67;25.17;;;22.30;99.90;;;;;;6225551;23;20427;-69
2021/06/04 08:21:26;;;;;;;28.00;25.23;;;22.40;99.90;;;;;;6225577;23;20780;-68
2021/06/04 08:23:54;;;;;;;28.73;26.00;;;22.40;99.90;;;;;;6226340;23;20383;-70
2021/06/04 08:26:26;;;;;;;27.33;24.83;;;22.40;99.90;;;;;;6225647;23;20533;-69
2021/06/04 08:28:54;;;;;;;29.00;26.13;;;22.40;99.90;;;;;;6226365;23;20473;-70
2021/06/04 08:31:23;;;;;;;28.60;25.53;;;22.40;99.90;;;;;;6227613;23;20460;-69
2021/06/04 08:33:51;;;;;;;28.60;25.90;;;22.40;99.90;;;;;;6190916;23;20480;-69
2021/06/04 08:36:22;;;;;;;28.15;25.75;;;22.50;99.90;;;;;;6226503;23;20429;-69
2021/06/04 08:38:50;;;;;;;29.17;26.53;;;22.60;99.90;;;;;;6228759;23;20158;-69
2021/06/04 08:41:36;;;;;;;27.13;24.73;;;22.60;99.90;;;;;;6227644;23;20402;-71
2021/06/04 08:44:29;;;;;;;28.93;26.17;;;22.60;99.90;;;;;;6227973;23;20373;-70
2021/06/04 08:47:01;;;;;;;29.67;27.17;;;22.70;99.90;;;;;;6190722;23;20510;-73
2021/06/04 08:49:45;;;;;;;27.83;25.23;;;22.70;99.90;;;;;;6192849;23;20238;-71
2021/06/04 08:52:21;;;;;;;27.97;25.43;;;22.90;99.90;;;;;;6190849;23;20770;-70
2021/06/04 08:54:58;;;;;;;26.63;24.23;;;22.90;99.90;;;;;;6217478;23;20477;-70
2021/06/04 08:57:46;;;;;;;28.13;25.50;;;23.00;99.90;;;;;;6217833;23;20736;-70
2021/06/04 09:00:20;;;;;;;27.53;25.17;;;23.10;99.90;;;;;;6190924;23;20410;-70
2021/06/04 09:02:50;;;;;;;28.10;25.50;;;23.10;99.90;;;;;;6190872;23;20739;-68
2021/06/04 09:05:23;;;;;;;29.70;27.10;;;23.30;99.90;;;;;;6217656;23;20437;-69
2021/06/04 09:07:53;;;;;;;28.43;25.80;;;23.40;99.90;;;;;;6227942;23;20779;-72
2021/06/04 09:10:31;;;;;;;28.97;26.07;;;23.50;99.90;;;;;;6190659;23;20504;-70
2021/06/04 09:13:08;;;;;;;28.40;25.73;;;23.60;99.90;;;;;;6227492;23;20405;-72
2021/06/04 09:15:39;;;;;;;26.10;23.87;;;23.70;99.90;;;;;;6190576;23;20474;-72
2021/06/04 09:18:12;;;;;;;30.27;27.77;;;23.80;99.90;;;;;;6190678;23;20448;-71
2021/06/04 09:20:48;;;;;;;27.03;24.83;;;23.80;99.90;;;;;;6227748;23;20388;-67
2021/06/04 09:23:19;;;;;;;29.53;26.93;;;23.80;99.90;;;;;;6190293;23;20500;-71
2021/06/04 09:25:47;;;;;;;32.83;29.90;;;23.70;99.90;;;;;;6227286;23;20754;-70
2021/06/04 09:28:31;;;;;;;31.27;28.30;;;23.70;99.90;;;;;;6226988;23;20402;-70
2021/06/04 09:31:00;;;;;;;32.07;29.17;;;23.70;99.90;;;;;;6227730;23;20821;-70
2021/06/04 09:33:31;;;;;;;32.50;29.60;;;23.70;99.90;;;;;;6225461;23;20868;-71
2021/06/04 09:36:06;;;;;;;33.07;30.00;;;23.90;99.90;;;;;;6190797;23;20434;-70
2021/06/04 09:38:39;;;;;;;31.87;28.90;;;23.90;99.90;;;;;;6227830;23;20418;-69
2021/06/04 09:41:38;;;;;;;30.97;27.97;;;23.90;99.90;;;;;;6227003;23;20444;-71
2021/06/04 09:44:13;;;;;;;33.17;30.17;;;23.90;99.90;;;;;;6215293;23;20429;-71
2021/06/04 09:46:52;;;;;;;32.57;29.57;;;23.90;99.90;;;;;;6226927;23;20187;-72
2021/06/04 09:49:44;;;;;;;29.77;26.97;;;24.00;99.90;;;;;;6227761;23;20481;-70
2021/06/04 09:52:26;;;;;;;32.30;29.30;;;24.10;99.90;;;;;;6227320;23;20470;-71
2021/06/04 09:55:26;;;;;;;30.03;27.30;;;24.20;99.90;;;;;;6226940;23;20521;-71
2021/06/04 09:57:59;;;;;;;31.27;28.27;;;24.20;99.90;;;;;;6191916;23;20421;-71
2021/06/04 10:00:32;;;;;;;32.50;29.67;;;24.20;99.90;;;;;;6227481;23;20407;-71
2021/06/04 10:03:14;;;;;;;31.20;27.90;;;24.30;99.90;;;;;;6227249;23;20470;-71
2021/06/04 10:05:44;;;;;;;30.70;27.60;;;24.30;99.90;;;;;;6190414;23;20442;-74
2021/06/04 10:08:20;;;;;;;30.50;27.50;;;24.40;99.90;;;;;;6217051;23;20481;-72
2021/06/04 10:11:03;;;;;;;29.83;27.03;;;24.50;99.90;;;;;;6190168;23;20502;-72
2021/06/04 10:13:37;;;;;;;29.27;26.80;;;24.50;99.90;;;;;;6190148;23;20409;-74
2021/06/04 10:16:39;;;;;;;29.17;26.60;;;24.50;99.90;;;;;;6226778;23;20434;-71
2021/06/04 10:19:19;;;;;;;29.57;26.90;;;24.60;99.90;;;;;;6227222;23;20379;-71
2021/06/04 10:21:47;;;;;;;30.53;27.53;;;24.70;99.90;;;;;;6217394;23;20464;-71
2021/06/04 10:24:29;;;;;;;28.40;26.00;;;24.70;99.90;;;;;;6227505;23;20409;-71
2021/06/04 10:27:00;;;;;;;30.60;27.90;;;24.80;99.90;;;;;;6229147;23;20679;-71
2021/06/04 10:29:30;;;;;;;31.30;28.50;;;24.90;99.90;;;;;;6227418;23;20380;-71
2021/06/04 10:32:02;;;;;;;28.10;25.50;;;24.90;99.90;;;;;;6227446;23;20781;-72
2021/06/04 10:35:01;;;;;;;29.10;26.60;;;24.90;99.90;;;;;;6218023;23;20485;-72
2021/06/04 10:37:35;;;;;;;28.73;26.13;;;24.90;99.90;;;;;;6190413;23;20407;-71
2021/06/04 10:40:11;;;;;;;30.23;27.47;;;25.00;99.90;;;;;;6227035;23;20994;-72
2021/06/04 10:42:50;;;;;;;29.40;26.60;;;25.10;99.90;;;;;;6226948;23;20407;-71
2021/06/04 10:45:21;;;;;;;29.80;26.90;;;25.20;99.90;;;;;;6226954;23;20754;-71
2021/06/04 10:48:01;;;;;;;30.53;27.90;;;25.30;99.90;;;;;;6216833;23;20406;-71
2021/06/04 10:50:33;;;;;;;29.07;26.43;;;25.40;99.90;;;;;;6190387;23;20410;-71
2021/06/04 10:53:06;;;;;;;32.40;29.50;;;25.50;99.90;;;;;;6217222;23;20395;-71
2021/06/04 10:55:38;;;;;;;32.47;29.43;;;25.60;99.90;;;;;;6226631;23;20517;-71
2021/06/04 10:58:18;;;;;;;31.50;28.67;;;25.70;99.90;;;;;;6227222;23;20382;-71
2021/06/04 11:00:52;;;;;;;30.27;27.60;;;25.70;99.90;;;;;;6226541;23;20831;-71
2021/06/04 11:03:26;;;;;;;29.73;26.93;;;25.70;99.90;;;;;;6216807;23;20462;-71
2021/06/04 11:05:56;;;;;;;29.30;26.60;;;25.70;99.90;;;;;;6189985;23;20852;-71
2021/06/04 11:08:33;;;;;;;29.70;27.00;;;25.60;99.90;;;;;;6226436;23;20462;-71
2021/06/04 11:11:10;;;;;;;28.57;26.00;;;25.60;99.90;;;;;;6226590;23;20395;-71
2021/06/04 11:13:47;;;;;;;31.50;28.67;;;25.50;99.90;;;;;;6226608;23;20379;-70
2021/06/04 11:16:24;;;;;;;30.30;27.70;;;25.60;99.90;;;;;;6214504;23;20431;-70
2021/06/04 11:18:59;;;;;;;30.70;27.53;;;25.60;99.90;;;;;;6216354;23;20403;-71
2021/06/04 11:21:33;;;;;;;29.90;27.20;;;25.70;99.90;;;;;;6225543;23;20788;-74
2021/06/04 11:24:06;;;;;;;27.67;25.20;;;25.90;99.90;;;;;;6226524;23;20152;-73
2021/06/04 11:26:37;;;;;;;29.63;27.17;;;26.00;99.90;;;;;;6225820;23;20419;-74
2021/06/04 11:29:09;;;;;;;31.10;28.27;;;26.20;99.90;;;;;;6226261;23;20367;-75
2021/06/04 11:31:56;;;;;;;31.27;28.33;;;26.20;99.90;;;;;;6226248;23;20415;-72
2021/06/04 11:34:41;;;;;;;30.90;28.10;;;26.20;99.90;;;;;;6225578;23;20855;-72
2021/06/04 11:37:12;;;;;;;31.47;28.70;;;26.20;99.90;;;;;;6226270;23;20163;-73
2021/06/04 11:39:44;;;;;;;30.77;27.87;;;26.20;99.90;;;;;;6216148;23;20399;-72
2021/06/04 11:42:18;;;;;;;27.77;25.37;;;26.30;99.90;;;;;;6216311;23;20395;-73
2021/06/04 11:44:49;;;;;;;31.80;29.10;;;26.40;99.90;;;;;;6226521;23;20965;-72
2021/06/04 11:47:37;;;;;;;37.23;28.43;;;26.50;99.90;;;;;;6226161;23;20449;-74
2021/06/04 11:50:29;;;;;;;34.93;31.93;;;26.60;99.90;;;;;;6189206;23;20422;-73
2021/06/04 11:53:24;;;;;;;30.60;28.00;;;26.60;99.90;;;;;;6189194;23;20861;-74
2021/06/04 11:56:10;;;;;;;32.17;29.37;;;26.60;99.90;;;;;;6225444;23;20964;-71
2021/06/04 11:58:45;;;;;;;28.93;26.63;;;26.70;99.90;;;;;;6226161;23;20383;-71
2021/06/04 12:01:31;;;;;;;31.10;28.30;;;26.80;99.90;;;;;;6216214;23;20417;-71
2021/06/04 12:04:09;;;;;;;30.10;27.50;;;26.80;99.90;;;;;;6189034;23;20869;-71
2021/06/04 12:07:05;;;;;;;31.77;29.07;;;26.90;99.90;;;;;;6189461;23;20434;-71
2021/06/04 12:09:48;;;;;;;30.60;28.00;;;26.90;99.90;;;;;;6189411;23;20762;-70
2021/06/04 12:13:02;;;;;;;30.70;28.20;;;27.00;99.90;;;;;;6189107;23;20415;-71
2021/06/04 12:15:45;;;;;;;31.40;28.70;;;27.10;99.90;;;;;;6226331;23;20438;-70
2021/06/04 12:18:51;;;;;;;28.70;26.30;;;27.10;99.90;;;;;;6225969;23;20846;-71
2021/06/04 12:21:55;;;;;;;32.47;29.67;;;27.00;99.90;;;;;;6188919;23;20402;-74
2021/06/04 12:24:56;;;;;;;31.40;28.70;;;27.00;99.90;;;;;;6215463;23;20485;-71
2021/06/04 12:28:11;;;;;;;29.70;27.30;;;26.90;99.90;;;;;;6208729;23;20440;-71
2021/06/04 12:31:06;;;;;;;29.77;27.20;;;26.90;99.90;;;;;;6188795;23;20942;-72
2021/06/04 12:33:43;;;;;;;30.33;27.73;;;26.80;99.90;;;;;;6189215;23;20433;-72
2021/06/04 12:36:54;;;;;;;29.37;26.97;;;26.90;99.90;;;;;;6224342;23;20517;-72
2021/06/04 12:40:16;;;;;;;26.60;24.30;;;26.90;99.90;;;;;;6187606;23;20798;-72
2021/06/04 12:43:05;;;;;;;29.27;26.87;;;26.90;99.90;;;;;;6224127;23;20387;-71
2021/06/04 12:45:35;;;;;;;29.30;26.90;;;27.00;99.90;;;;;;6210313;23;20435;-72
2021/06/04 12:48:21;;;;;;;30.30;27.60;;;27.00;99.90;;;;;;6225357;23;20474;-71
2021/06/04 12:51:03;;;;;;;27.83;25.53;;;27.10;99.90;;;;;;6214203;23;20501;-71
2021/06/04 12:53:33;;;;;;;33.17;30.37;;;27.20;99.90;;;;;;6188482;23;20502;-72
2021/06/04 12:56:17;;;;;;;32.97;30.17;;;27.30;99.90;;;;;;6188870;23;20489;-72
2021/06/04 12:58:49;;;;;;;30.97;28.33;;;27.30;99.90;;;;;;6225572;23;20379;-71
2021/06/04 13:01:21;;;;;;;29.63;27.13;;;27.40;99.90;;;;;;6225861;23;20564;-71